createdAt,value
2018-11-10T00:01:50.310Z,80.53
2018-11-10T00:04:20.271Z,80.45
2018-11-10T00:06:50.309Z,80.12
2018-11-10T00:09:20.137Z,80.21
2018-11-10T00:11:50.019Z,80.35
2018-11-10T00:14:19.879Z,80.15
2018-11-10T00:16:49.696Z,79.98
2018-11-10T00:19:19.376Z,79.81
2018-11-10T00:21:49.660Z,79.79
2018-11-10T00:24:19.472Z,80.00
2018-11-10T00:26:49.240Z,80.34
2018-11-10T00:29:19.998Z,80.46
2018-11-10T00:31:49.838Z,80.44
2018-11-10T00:34:19.598Z,80.69
2018-11-10T00:36:49.400Z,81.13
2018-11-10T00:39:20.297Z,81.58
2018-11-10T00:41:50.737Z,81.50
2018-11-10T00:44:20.550Z,81.45
2018-11-10T00:46:50.373Z,81.46
2018-11-10T00:49:20.152Z,82.08
2018-11-10T00:51:50.006Z,82.78
2018-11-10T00:54:19.798Z,82.92
2018-11-10T00:56:49.610Z,83.15
2018-11-10T00:59:19.631Z,84.00
2018-11-10T01:01:49.377Z,84.11
2018-11-10T01:04:19.200Z,84.62
2018-11-10T01:07:51.853Z,85.49
2018-11-10T01:10:21.799Z,86.06
2018-11-10T01:12:51.678Z,86.36
2018-11-10T01:15:21.606Z,85.91
2018-11-10T01:17:52.565Z,85.69
2018-11-10T01:20:22.393Z,85.98
2018-11-10T01:22:52.186Z,86.11
2018-11-10T01:25:22.029Z,86.18
2018-11-10T01:27:51.886Z,86.37
2018-11-10T01:30:21.680Z,86.34
2018-11-10T01:32:51.551Z,87.09
2018-11-10T01:35:21.377Z,87.53
2018-11-10T01:37:51.368Z,87.33
2018-11-10T01:40:21.162Z,87.34
2018-11-10T01:42:50.942Z,87.51
2018-11-10T01:45:20.769Z,87.38
2018-11-10T01:47:50.808Z,87.76
2018-11-10T01:50:20.612Z,87.98
2018-11-10T01:52:50.497Z,88.25
2018-11-10T01:55:20.236Z,88.16
2018-11-10T01:57:50.281Z,88.62
2018-11-10T02:00:20.556Z,88.61
2018-11-10T02:02:50.277Z,88.45
2018-11-10T02:05:19.965Z,88.88
2018-11-10T02:07:49.745Z,88.60
2018-11-10T02:10:19.655Z,88.60
2018-11-10T02:12:49.578Z,88.67
2018-11-10T02:15:19.251Z,88.67
2018-11-10T02:17:49.185Z,88.46
2018-11-10T02:20:18.898Z,88.42
2018-11-10T02:22:48.864Z,88.72
2018-11-10T02:25:18.785Z,88.52
2018-11-10T02:27:48.726Z,89.33
2018-11-10T02:30:18.479Z,90.99
2018-11-10T02:32:48.304Z,91.49
2018-11-10T02:35:19.310Z,91.54
2018-11-10T02:37:49.133Z,90.93
2018-11-10T02:40:18.804Z,90.09
2018-11-10T02:42:48.482Z,89.37
2018-11-10T02:45:18.436Z,89.28
2018-11-10T02:47:48.225Z,89.78
2018-11-10T02:50:18.483Z,90.17
2018-11-10T02:52:48.476Z,90.28
2018-11-10T02:55:18.239Z,90.49
2018-11-10T02:57:48.077Z,90.33
2018-11-10T03:00:17.823Z,90.09
2018-11-10T03:02:47.607Z,90.16
2018-11-10T03:05:17.302Z,89.78
2018-11-10T03:07:47.135Z,89.67
2018-11-10T03:10:17.959Z,89.64
2018-11-10T03:12:47.679Z,89.43
2018-11-10T03:15:17.455Z,88.92
2018-11-10T03:17:47.328Z,87.95
2018-11-10T03:20:17.187Z,88.57
2018-11-10T03:22:50.481Z,88.28
2018-11-10T03:25:20.295Z,88.38
2018-11-10T03:27:50.134Z,88.33
2018-11-10T03:30:19.867Z,88.79
2018-11-10T03:32:49.662Z,89.16
2018-11-10T03:35:19.396Z,89.57
2018-11-10T03:37:49.137Z,89.28
2018-11-10T03:40:18.850Z,89.16
2018-11-10T03:42:48.642Z,89.39
2018-11-10T03:45:18.608Z,88.93
2018-11-10T03:47:48.360Z,89.20
2018-11-10T03:50:18.116Z,89.30
2018-11-10T03:52:47.907Z,88.95
2018-11-10T03:55:17.733Z,88.19
2018-11-10T03:57:47.387Z,87.84
2018-11-10T04:00:21.686Z,87.99
2018-11-10T04:02:52.180Z,88.51
2018-11-10T04:05:21.890Z,88.91
2018-11-10T04:07:51.719Z,88.58
2018-11-10T04:10:21.479Z,88.93
2018-11-10T04:12:51.439Z,88.54
2018-11-10T04:15:21.216Z,88.53
2018-11-10T04:17:50.874Z,88.31
2018-11-10T04:20:21.715Z,88.01
2018-11-10T04:22:51.489Z,87.82
2018-11-10T04:25:21.389Z,87.85
2018-11-10T04:27:51.310Z,87.67
2018-11-10T04:30:22.344Z,87.69
2018-11-10T04:32:52.128Z,87.56
2018-11-10T04:35:23.129Z,87.55
2018-11-10T04:37:52.888Z,87.17
2018-11-10T04:40:22.704Z,87.16
2018-11-10T04:42:54.580Z,86.89
2018-11-10T04:45:25.363Z,87.28
2018-11-10T04:47:55.100Z,87.34
2018-11-10T04:50:25.120Z,86.94
2018-11-10T04:52:55.009Z,87.01
2018-11-10T04:55:24.716Z,86.69
2018-11-10T04:57:54.579Z,86.01
2018-11-10T05:00:24.299Z,86.15
2018-11-10T05:02:55.262Z,85.95
2018-11-10T05:05:26.109Z,85.84
2018-11-10T05:07:55.819Z,85.98
2018-11-10T05:10:25.771Z,85.61
2018-11-10T05:12:55.511Z,85.71
2018-11-10T05:15:25.436Z,85.82
2018-11-10T05:17:55.317Z,85.32
2018-11-10T05:20:25.168Z,84.80
2018-11-10T05:22:55.016Z,84.29
2018-11-10T05:25:25.873Z,84.58
2018-11-10T05:27:55.705Z,84.13
2018-11-10T05:30:25.400Z,83.81
2018-11-10T05:32:55.160Z,83.24
2018-11-10T05:35:24.946Z,82.47
2018-11-10T05:37:54.700Z,81.61
2018-11-10T05:40:24.432Z,80.67
2018-11-10T05:42:54.226Z,79.90
2018-11-10T05:45:24.114Z,79.28
2018-11-10T05:47:53.814Z,78.78
2018-11-10T05:50:23.655Z,78.17
2018-11-10T05:52:53.474Z,77.65
2018-11-10T05:55:30.399Z,77.17
2018-11-10T05:58:00.094Z,76.98
2018-11-10T06:00:29.789Z,76.92
2018-11-10T06:02:59.481Z,76.20
2018-11-10T06:05:29.351Z,75.96
2018-11-10T06:07:59.289Z,75.68
2018-11-10T06:10:29.065Z,75.65
2018-11-10T06:12:58.770Z,75.46
2018-11-10T06:15:35.241Z,75.94
2018-11-10T06:18:06.864Z,75.50
2018-11-10T06:20:36.646Z,75.49
2018-11-10T06:23:07.127Z,75.71
2018-11-10T06:25:36.965Z,75.14
2018-11-10T06:28:06.850Z,75.37
2018-11-10T06:30:36.817Z,75.05
2018-11-10T06:33:06.660Z,75.59
2018-11-10T06:35:36.438Z,74.97
2018-11-10T06:38:06.493Z,73.75
2018-11-10T06:40:37.266Z,74.19
2018-11-10T06:43:07.055Z,74.44
2018-11-10T06:45:37.015Z,73.85
2018-11-10T06:48:06.942Z,73.95
2018-11-10T06:50:36.616Z,73.60
2018-11-10T06:53:06.543Z,73.81
2018-11-10T06:55:36.216Z,73.91
2018-11-10T06:58:06.302Z,73.64
2018-11-10T07:00:36.067Z,73.19
2018-11-10T07:03:05.839Z,73.64
2018-11-10T07:05:35.633Z,73.72
2018-11-10T07:08:08.462Z,73.27
2018-11-10T07:10:38.528Z,73.49
2018-11-10T07:13:08.321Z,72.23
2018-11-10T07:15:37.970Z,72.19
2018-11-10T07:19:37.113Z,72.17
2018-11-10T07:22:06.935Z,71.13
2018-11-10T07:24:36.644Z,70.63
2018-11-10T07:27:07.976Z,71.08
2018-11-10T07:29:37.757Z,69.80
2018-11-10T07:32:07.618Z,70.34
2018-11-10T07:34:37.400Z,70.26
2018-11-10T07:37:07.881Z,70.34
2018-11-10T07:39:37.692Z,69.74
2018-11-10T07:42:07.619Z,68.98
2018-11-10T07:44:37.474Z,69.02
2018-11-10T07:47:07.725Z,68.94
2018-11-10T07:49:37.690Z,69.49
2018-11-10T07:52:10.673Z,69.13
2018-11-10T07:54:41.249Z,68.62
2018-11-10T07:57:11.114Z,68.58
2018-11-10T07:59:40.910Z,68.50
2018-11-10T08:02:11.577Z,67.31
2018-11-10T08:04:41.392Z,67.22
2018-11-10T08:07:11.057Z,66.30
2018-11-10T08:09:41.600Z,66.93
2018-11-10T08:12:11.326Z,66.44
2018-11-10T08:14:41.808Z,65.97
2018-11-10T08:17:11.667Z,65.31
2018-11-10T08:19:41.466Z,66.42
2018-11-10T08:22:11.171Z,65.91
2018-11-10T08:24:41.133Z,65.76
2018-11-10T08:27:10.884Z,65.16
2018-11-10T08:29:40.789Z,64.75
2018-11-10T08:32:11.802Z,64.88
2018-11-10T08:34:41.561Z,63.64
2018-11-10T08:37:11.387Z,64.09
2018-11-10T08:39:41.161Z,64.17
2018-11-10T08:42:10.961Z,63.40
2018-11-10T08:44:40.741Z,63.43
2018-11-10T08:47:10.758Z,63.35
2018-11-10T08:49:41.228Z,63.76
2018-11-10T08:52:11.029Z,63.66
2018-11-10T08:54:40.836Z,63.63
2018-11-10T08:57:12.274Z,63.19
2018-11-10T08:59:42.111Z,62.85
2018-11-10T09:02:17.261Z,62.83
2018-11-10T09:04:47.565Z,62.99
2018-11-10T09:07:17.422Z,62.75
2018-11-10T09:09:47.198Z,62.80
2018-11-10T09:12:16.943Z,62.69
2018-11-10T09:14:46.646Z,62.51
2018-11-10T09:17:16.378Z,61.58
2018-11-10T09:19:46.730Z,61.20
2018-11-10T09:22:18.288Z,60.88
2018-11-10T09:24:48.918Z,60.29
2018-11-10T09:27:18.661Z,61.01
2018-11-10T09:29:48.465Z,60.53
2018-11-10T09:32:18.324Z,60.45
2018-11-10T09:34:47.965Z,60.10
2018-11-10T09:37:17.757Z,60.09
2018-11-10T09:39:47.461Z,59.82
2018-11-10T09:42:19.307Z,60.36
2018-11-10T09:44:49.222Z,61.28
2018-11-10T09:47:20.069Z,59.63
2018-11-10T09:49:51.081Z,59.56
2018-11-10T09:52:21.073Z,59.51
2018-11-10T09:54:50.991Z,58.32
2018-11-10T09:57:20.805Z,58.05
2018-11-10T09:59:50.752Z,56.79
2018-11-10T10:02:20.893Z,54.86
2018-11-10T10:04:50.407Z,54.53
2018-11-10T10:07:20.110Z,53.98
2018-11-10T10:09:50.029Z,53.39
2018-11-10T10:12:19.834Z,53.49
2018-11-10T10:14:49.570Z,52.83
2018-11-10T10:17:19.214Z,53.68
2018-11-10T10:19:49.077Z,54.18
2018-11-10T10:22:18.778Z,54.01
2018-11-10T10:24:48.495Z,54.22
2018-11-10T10:27:18.246Z,54.58
2018-11-10T10:29:48.164Z,55.30
2018-11-10T10:32:17.940Z,54.34
2018-11-10T10:34:47.707Z,56.30
2018-11-10T10:37:17.356Z,56.72
2018-11-10T10:39:47.121Z,55.95
2018-11-10T10:42:16.870Z,56.24
2018-11-10T10:44:46.692Z,57.10
2018-11-10T10:47:16.715Z,59.16
2018-11-10T10:49:46.480Z,58.92
2018-11-10T10:52:16.359Z,59.56
2018-11-10T10:54:46.145Z,59.20
2018-11-10T10:57:17.084Z,60.70
2018-11-10T10:59:46.909Z,59.05
2018-11-10T11:02:21.610Z,60.46
2018-11-10T11:04:55.144Z,59.83
2018-11-10T11:07:26.163Z,60.50
2018-11-10T11:09:56.115Z,60.68
2018-11-10T11:12:26.829Z,60.15
2018-11-10T11:14:56.591Z,60.08
2018-11-10T11:17:26.258Z,61.83
2018-11-10T11:19:56.005Z,62.12
2018-11-10T11:22:25.799Z,60.27
2018-11-10T11:24:55.625Z,62.15
2018-11-10T11:27:25.302Z,62.66
2018-11-10T11:29:55.047Z,61.36
2018-11-10T11:32:24.848Z,61.59
2018-11-10T11:34:54.611Z,61.01
2018-11-10T11:37:25.693Z,62.30
2018-11-10T11:39:55.461Z,61.52
2018-11-10T11:42:25.186Z,62.14
2018-11-10T11:44:54.888Z,61.13
2018-11-10T11:47:24.790Z,60.48
2018-11-10T11:49:54.538Z,60.34
2018-11-10T11:52:24.190Z,60.35
2018-11-10T11:54:54.018Z,61.77
2018-11-10T11:57:23.913Z,61.60
2018-11-10T11:59:53.656Z,61.80
2018-11-10T12:02:23.367Z,60.55
2018-11-10T12:04:53.032Z,59.58
2018-11-10T12:07:23.052Z,60.00
2018-11-10T12:09:52.817Z,60.40
2018-11-10T12:12:22.631Z,59.48
2018-11-10T12:14:52.684Z,61.11
2018-11-10T12:17:22.576Z,60.35
2018-11-10T12:19:52.292Z,59.86
2018-11-10T12:22:22.009Z,60.68
2018-11-10T12:24:51.760Z,61.06
2018-11-10T12:27:21.786Z,60.07
2018-11-10T12:29:51.670Z,61.66
2018-11-10T12:32:21.395Z,60.55
2018-11-10T12:34:51.228Z,60.21
2018-11-10T12:37:20.943Z,60.31
2018-11-10T12:39:50.799Z,62.33
2018-11-10T12:42:20.665Z,60.43
2018-11-10T12:44:50.360Z,59.40
2018-11-10T12:47:20.147Z,59.98
2018-11-10T12:49:49.858Z,60.69
2018-11-10T12:52:19.572Z,60.17
2018-11-10T12:54:49.680Z,60.09
2018-11-10T12:57:19.589Z,60.26
2018-11-10T12:59:49.261Z,60.03
2018-11-10T13:02:19.102Z,59.80
2018-11-10T13:04:48.938Z,60.32
2018-11-10T13:07:19.409Z,61.51
2018-11-10T13:09:49.428Z,62.09
2018-11-10T13:12:19.216Z,61.56
2018-11-10T13:14:48.828Z,61.49
2018-11-10T13:17:18.614Z,62.19
2018-11-10T13:19:48.367Z,61.71
2018-11-10T13:22:18.087Z,62.14
2018-11-10T13:24:47.787Z,62.42
2018-11-10T13:27:17.603Z,62.33
2018-11-10T13:29:48.650Z,61.92
2018-11-10T13:32:18.452Z,61.60
2018-11-10T13:34:48.299Z,61.43
2018-11-10T13:37:17.952Z,61.77
2018-11-10T13:39:47.816Z,62.38
2018-11-10T13:42:17.629Z,62.54
2018-11-10T13:44:47.307Z,62.97
2018-11-10T13:47:17.136Z,62.99
2018-11-10T13:50:18.077Z,62.32
2018-11-10T13:52:48.204Z,61.85
2018-11-10T13:55:17.610Z,62.14
2018-11-10T13:57:47.384Z,62.19
2018-11-10T14:00:19.112Z,63.08
2018-11-10T14:02:48.930Z,63.99
2018-11-10T14:05:18.746Z,64.27
2018-11-10T14:07:48.412Z,64.24
2018-11-10T14:10:18.363Z,63.98
2018-11-10T14:12:51.321Z,64.32
2018-11-10T14:15:21.011Z,64.51
2018-11-10T14:17:50.718Z,64.88
2018-11-10T14:20:20.399Z,65.59
2018-11-10T14:22:50.168Z,65.49
2018-11-10T14:25:20.208Z,66.52
2018-11-10T14:27:49.818Z,66.59
2018-11-10T14:30:19.936Z,67.21
2018-11-10T14:32:49.658Z,66.97
2018-11-10T14:35:19.479Z,67.56
2018-11-10T14:37:49.377Z,67.81
2018-11-10T14:40:20.595Z,68.60
2018-11-10T14:42:50.432Z,69.25
2018-11-10T14:45:20.830Z,69.75
2018-11-10T14:47:50.507Z,70.21
2018-11-10T14:50:20.510Z,70.64
2018-11-10T14:52:51.503Z,70.82
2018-11-10T14:55:21.128Z,71.66
2018-11-10T14:57:50.957Z,71.83
2018-11-10T15:00:24.681Z,72.53
2018-11-10T15:02:54.481Z,72.95
2018-11-10T15:05:24.330Z,73.53
2018-11-10T15:07:54.095Z,73.66
2018-11-10T15:10:23.828Z,74.09
2018-11-10T15:12:53.680Z,74.44
2018-11-10T15:15:23.410Z,74.44
2018-11-10T15:17:53.294Z,74.94
2018-11-10T15:20:22.994Z,75.20
2018-11-10T15:22:52.807Z,75.39
2018-11-10T15:25:22.704Z,74.90
2018-11-10T15:27:52.828Z,75.18
2018-11-10T15:30:22.955Z,75.25
2018-11-10T15:32:52.686Z,75.62
2018-11-10T15:35:23.113Z,75.57
2018-11-10T15:37:54.041Z,75.97
2018-11-10T15:40:24.234Z,76.37
2018-11-10T15:42:55.091Z,76.78
2018-11-10T15:45:24.801Z,76.99
2018-11-10T15:47:54.543Z,76.74
2018-11-10T15:50:24.317Z,77.30
2018-11-10T15:52:58.718Z,77.60
2018-11-10T15:55:28.474Z,77.35
2018-11-10T15:58:07.680Z,77.62
2018-11-10T16:00:37.994Z,77.86
2018-11-10T16:03:07.910Z,78.23
2018-11-10T16:05:37.660Z,77.56
2018-11-10T16:08:07.670Z,77.85
2018-11-10T16:10:37.500Z,78.30
2018-11-10T16:13:07.376Z,78.38
2018-11-10T16:15:38.028Z,78.58
2018-11-10T16:18:08.873Z,78.78
2018-11-10T16:20:38.775Z,79.24
2018-11-10T16:23:08.650Z,79.80
2018-11-10T16:25:38.547Z,79.92
2018-11-10T16:28:08.337Z,80.33
2018-11-10T16:30:38.071Z,80.69
2018-11-10T16:33:08.059Z,80.47
2018-11-10T16:35:38.771Z,80.77
2018-11-10T16:38:09.506Z,80.55
2018-11-10T16:40:41.107Z,80.26
2018-11-10T16:43:12.078Z,80.62
2018-11-10T16:45:41.867Z,80.81
2018-11-10T16:48:11.677Z,81.28
2018-11-10T16:50:42.392Z,81.38
2018-11-10T16:53:12.141Z,81.46
2018-11-10T16:55:41.880Z,81.84
2018-11-10T16:58:12.096Z,82.15
2018-11-10T17:00:41.797Z,82.06
2018-11-10T17:03:11.625Z,82.46
2018-11-10T17:05:41.441Z,82.09
2018-11-10T17:08:11.044Z,81.31
2018-11-10T17:10:40.734Z,81.09
2018-11-10T17:13:10.366Z,82.00
2018-11-10T17:15:40.194Z,81.87
2018-11-10T17:18:09.796Z,82.25
2018-11-10T17:20:39.572Z,82.81
2018-11-10T17:23:09.316Z,83.00
2018-11-10T17:25:39.196Z,82.52
2018-11-10T17:28:09.933Z,82.31
2018-11-10T17:30:40.647Z,81.70
2018-11-10T17:33:10.419Z,82.01
2018-11-10T17:35:40.056Z,82.64
2018-11-10T17:38:09.986Z,82.63
2018-11-10T17:40:40.805Z,83.14
2018-11-10T17:43:10.678Z,83.85
2018-11-10T17:45:40.394Z,84.23
2018-11-10T17:48:10.092Z,84.37
2018-11-10T17:50:39.886Z,84.52
2018-11-10T17:53:09.792Z,84.48
2018-11-10T17:55:39.623Z,84.19
2018-11-10T17:58:10.433Z,83.88
2018-11-10T18:00:40.388Z,85.01
2018-11-10T18:03:10.738Z,85.61
2018-11-10T18:05:41.550Z,85.83
2018-11-10T18:08:11.374Z,86.00
2018-11-10T18:10:41.213Z,85.85
2018-11-10T18:13:10.969Z,85.63
2018-11-10T18:15:40.912Z,85.54
2018-11-10T18:18:11.672Z,85.62
2018-11-10T18:20:45.636Z,85.76
2018-11-10T18:23:15.342Z,85.76
2018-11-10T18:25:45.085Z,86.18
2018-11-10T18:28:14.834Z,86.67
2018-11-10T18:30:45.353Z,86.98
2018-11-10T18:33:15.056Z,86.92
2018-11-10T18:35:44.940Z,87.01
2018-11-10T18:38:18.335Z,87.04
2018-11-10T18:40:48.212Z,87.21
2018-11-10T18:43:18.676Z,87.42
2018-11-10T18:45:49.150Z,87.46
2018-11-10T18:48:18.860Z,87.38
2018-11-10T18:50:49.506Z,87.45
2018-11-10T18:53:23.560Z,87.80
2018-11-10T18:55:53.266Z,87.04
2018-11-10T18:58:23.038Z,86.59
2018-11-10T19:00:55.688Z,87.61
2018-11-10T19:03:25.428Z,88.22
2018-11-10T19:05:56.060Z,88.17
2018-11-10T19:08:25.874Z,88.35
2018-11-10T19:10:55.634Z,88.72
2018-11-10T19:13:25.934Z,89.43
2018-11-10T19:15:57.613Z,89.38
2018-11-10T19:21:07.561Z,88.26
2018-11-10T19:23:38.170Z,88.47
2018-11-10T19:26:10.534Z,88.76
2018-11-10T19:28:44.338Z,88.15
2018-11-10T19:31:14.580Z,88.78
2018-11-10T19:33:44.932Z,88.85
2018-11-10T19:36:16.773Z,89.78
2018-11-10T19:38:47.532Z,90.03
2018-11-10T19:41:19.101Z,88.51
2018-11-10T19:43:48.989Z,88.97
2018-11-10T19:46:18.684Z,88.87
2018-11-10T19:48:48.918Z,89.43
2018-11-10T19:51:18.951Z,89.21
2018-11-10T19:53:48.798Z,89.83
2018-11-10T19:56:18.559Z,90.01
2018-11-10T19:58:51.653Z,89.62
2018-11-10T20:01:21.961Z,89.87
2018-11-10T20:03:52.141Z,89.74
2018-11-10T20:06:23.515Z,89.84
2018-11-10T20:08:53.489Z,89.82
2018-11-10T20:11:25.237Z,90.49
2018-11-10T20:13:55.270Z,90.84
2018-11-10T20:16:25.196Z,90.74
2018-11-10T20:18:55.285Z,90.72
2018-11-10T20:21:26.200Z,90.65
2018-11-10T20:23:56.075Z,90.36
2018-11-10T20:26:26.045Z,90.46
2018-11-10T20:28:56.360Z,90.57
2018-11-10T20:31:26.385Z,91.04
2018-11-10T20:33:56.115Z,90.79
2018-11-10T20:36:26.685Z,90.66
2018-11-10T20:38:56.754Z,91.33
2018-11-10T20:41:26.599Z,91.30
2018-11-10T20:43:56.785Z,91.34
2018-11-10T20:46:27.754Z,91.38
2018-11-10T20:48:57.448Z,91.54
2018-11-10T20:51:29.208Z,91.89
2018-11-10T20:53:59.258Z,91.60
2018-11-10T20:56:28.935Z,91.53
2018-11-10T20:58:58.915Z,91.73
2018-11-10T21:01:29.037Z,92.01
2018-11-10T21:03:59.905Z,92.57
2018-11-10T21:06:29.639Z,92.55
2018-11-10T21:08:59.404Z,92.87
2018-11-10T21:11:30.385Z,93.01
2018-11-10T21:14:06.316Z,92.81
2018-11-10T21:16:36.544Z,92.73
2018-11-10T21:19:07.888Z,92.96
2018-11-10T21:21:39.994Z,93.21
2018-11-10T21:24:12.283Z,93.44
2018-11-10T21:26:42.209Z,93.76
2018-11-10T21:29:13.029Z,93.71
2018-11-10T21:31:42.729Z,94.07
2018-11-10T21:34:12.673Z,93.99
2018-11-10T21:36:42.680Z,94.19
2018-11-10T21:39:12.713Z,94.26
2018-11-10T21:41:44.004Z,94.50
2018-11-10T21:44:14.791Z,94.55
2018-11-10T21:46:44.588Z,95.03
2018-11-10T21:49:15.025Z,94.80
2018-11-10T21:51:44.761Z,94.95
2018-11-10T21:54:14.484Z,94.91
2018-11-10T21:56:44.481Z,94.89
2018-11-10T21:59:14.507Z,94.69
2018-11-10T22:01:44.635Z,94.85
2018-11-10T22:04:15.292Z,94.71
2018-11-10T22:06:45.020Z,95.19
2018-11-10T22:09:14.798Z,95.05
2018-11-10T22:11:45.138Z,95.03
2018-11-10T22:14:14.893Z,95.31
2018-11-10T22:16:45.583Z,95.37
2018-11-10T22:19:15.380Z,94.78
2018-11-10T22:21:45.203Z,94.87
2018-11-10T22:24:14.936Z,95.02
2018-11-10T22:26:44.689Z,94.99
2018-11-10T22:29:14.425Z,95.43
2018-11-10T22:31:45.024Z,95.38
2018-11-10T22:34:14.705Z,95.50
2018-11-10T22:36:44.618Z,95.50
2018-11-10T22:40:43.770Z,95.21
2018-11-10T22:43:13.510Z,95.35
2018-11-10T22:45:43.378Z,95.58
2018-11-10T22:48:13.066Z,95.52
2018-11-10T22:50:42.795Z,95.32
2018-11-10T22:53:12.549Z,95.39
2018-11-10T22:55:42.242Z,95.80
2018-11-10T23:01:58.067Z,95.63
2018-11-10T23:04:27.823Z,96.12
2018-11-10T23:06:57.732Z,96.24
2018-11-10T23:09:27.561Z,96.40
2018-11-10T23:11:57.357Z,95.90
2018-11-10T23:14:27.191Z,96.11
2018-11-10T23:16:57.113Z,96.42
2018-11-10T23:19:26.811Z,96.31
2018-11-10T23:21:56.753Z,96.63
2018-11-10T23:24:26.531Z,96.70
2018-11-10T23:26:56.540Z,96.81
2018-11-10T23:29:27.583Z,96.60
2018-11-10T23:31:57.279Z,96.14
2018-11-10T23:34:27.124Z,95.82
2018-11-10T23:36:56.830Z,95.62
2018-11-10T23:39:27.784Z,95.62
2018-11-10T23:41:57.405Z,95.53
2018-11-10T23:44:27.207Z,95.55
2018-11-10T23:46:57.165Z,95.70
2018-11-10T23:49:26.979Z,96.08
2018-11-10T23:51:57.631Z,95.76
2018-11-10T23:54:30.721Z,95.90
2018-11-10T23:57:00.763Z,95.87
2018-11-10T23:59:32.228Z,96.13
